createdAt,value
2023-03-05T00:04:29.889Z,28.78
2023-03-05T00:09:51.920Z,28.93
2023-03-05T00:15:13.709Z,28.70
2023-03-05T00:20:36.334Z,29.14
2023-03-05T00:26:01.965Z,28.81
2023-03-05T00:31:26.022Z,28.83
2023-03-05T00:36:52.775Z,28.78
2023-03-05T00:42:14.492Z,29.24
2023-03-05T00:47:36.333Z,28.92
2023-03-05T00:52:58.114Z,29.11
2023-03-05T00:58:19.810Z,28.85
2023-03-05T01:03:42.138Z,29.11
2023-03-05T01:09:04.408Z,28.91
2023-03-05T01:14:28.035Z,28.97
2023-03-05T01:19:49.826Z,29.42
2023-03-05T01:25:14.888Z,29.50
2023-03-05T01:30:36.629Z,29.51
2023-03-05T01:35:58.698Z,29.32
2023-03-05T01:41:21.156Z,29.28
2023-03-05T01:46:42.878Z,29.46
2023-03-05T01:52:12.239Z,29.61
2023-03-05T01:57:38.471Z,29.47
2023-03-05T02:03:05.981Z,29.30
2023-03-05T02:08:27.780Z,29.57
2023-03-05T02:13:49.611Z,29.52
2023-03-05T02:19:14.275Z,29.78
2023-03-05T02:24:37.870Z,29.34
2023-03-05T02:29:59.541Z,29.60
2023-03-05T02:35:21.874Z,29.63
2023-03-05T02:40:44.203Z,29.57
2023-03-05T02:46:06.694Z,29.61
2023-03-05T02:51:28.395Z,29.56
2023-03-05T02:56:50.367Z,29.50
2023-03-05T03:02:12.670Z,30.04
2023-03-05T03:07:36.144Z,29.75
2023-03-05T03:12:57.878Z,30.02
2023-03-05T03:18:20.074Z,30.09
2023-03-05T03:23:41.755Z,30.11
2023-03-05T03:29:03.481Z,29.99
2023-03-05T03:34:25.796Z,30.15
2023-03-05T03:39:47.939Z,30.22
2023-03-05T03:45:09.999Z,30.21
2023-03-05T03:50:31.740Z,30.06
2023-03-05T03:55:58.813Z,29.95
2023-03-05T04:01:21.744Z,30.19
2023-03-05T04:06:43.871Z,30.31
2023-03-05T04:12:06.249Z,29.99
2023-03-05T04:17:27.948Z,29.89
2023-03-05T04:22:49.726Z,30.25
2023-03-05T04:28:12.036Z,30.38
2023-03-05T04:33:34.239Z,30.33
2023-03-05T04:38:56.006Z,30.44
2023-03-05T04:44:18.260Z,30.11
2023-03-05T04:49:40.005Z,30.13
2023-03-05T04:55:01.907Z,30.07
2023-03-05T05:00:24.448Z,30.50
2023-03-05T05:05:46.213Z,30.25
2023-03-05T05:11:09.028Z,30.39
2023-03-05T05:16:30.817Z,30.25
2023-03-05T05:21:52.579Z,30.33
2023-03-05T05:27:14.420Z,30.62
2023-03-05T05:32:37.059Z,30.53
2023-03-05T05:37:58.933Z,30.56
2023-03-05T05:43:20.956Z,30.53
2023-03-05T05:48:43.622Z,30.41
2023-03-05T05:54:05.540Z,30.73
2023-03-05T05:59:27.625Z,30.49
2023-03-05T06:04:49.473Z,30.63
2023-03-05T06:10:11.717Z,30.54
2023-03-05T06:15:33.685Z,30.48
2023-03-05T06:20:57.660Z,30.83
2023-03-05T06:26:22.031Z,30.48
2023-03-05T06:31:43.888Z,30.44
2023-03-05T06:37:05.826Z,30.75
2023-03-05T06:42:27.578Z,30.59
2023-03-05T06:47:49.774Z,30.61
2023-03-05T06:53:11.479Z,30.86
2023-03-05T06:58:33.197Z,30.30
2023-03-05T07:03:59.191Z,30.00
2023-03-05T07:09:21.140Z,29.13
2023-03-05T07:14:42.851Z,28.95
2023-03-05T07:20:05.106Z,28.64
2023-03-05T07:25:26.919Z,28.87
2023-03-05T07:31:00.045Z,29.07
2023-03-05T07:36:21.898Z,28.72
2023-03-05T07:41:43.602Z,29.17
2023-03-05T07:47:06.196Z,28.85
2023-03-05T07:52:27.896Z,29.31
2023-03-05T07:57:49.822Z,29.45
2023-03-05T08:03:11.719Z,29.48
2023-03-05T08:08:33.609Z,29.87
2023-03-05T08:13:55.602Z,29.75
2023-03-05T08:19:17.277Z,29.92
2023-03-05T08:24:38.961Z,30.09
2023-03-05T08:30:02.723Z,30.12
2023-03-05T08:35:24.663Z,29.94
2023-03-05T08:40:46.436Z,29.06
2023-03-05T08:46:09.006Z,28.83
2023-03-05T08:51:30.950Z,28.31
2023-03-05T08:56:52.660Z,28.11
2023-03-05T09:06:05.451Z,27.61
2023-03-05T09:11:27.155Z,27.75
2023-03-05T09:16:48.847Z,27.48
2023-03-05T09:22:10.558Z,27.73
2023-03-05T09:27:36.286Z,27.88
2023-03-05T09:32:58.078Z,28.28
2023-03-05T09:38:20.612Z,28.18
2023-03-05T09:44:00.674Z,28.36
2023-03-05T09:49:28.189Z,28.42
2023-03-05T09:54:55.412Z,28.73
2023-03-05T10:00:35.640Z,28.64
2023-03-05T10:06:12.857Z,28.88
2023-03-05T10:11:41.472Z,29.02
2023-03-05T10:17:33.643Z,28.98
2023-03-05T10:23:16.963Z,29.30
2023-03-05T10:28:44.388Z,29.41
2023-03-05T10:34:22.689Z,29.53
2023-03-05T10:39:50.410Z,29.71
2023-03-05T10:45:14.895Z,29.61
2023-03-05T10:50:41.268Z,30.17
2023-03-05T10:56:04.728Z,30.01
2023-03-05T11:01:29.555Z,30.35
2023-03-05T11:06:51.377Z,29.92
2023-03-05T11:12:27.158Z,29.85
2023-03-05T11:18:06.089Z,30.00
2023-03-05T11:23:27.871Z,29.99
2023-03-05T11:28:52.365Z,30.15
2023-03-05T11:34:19.695Z,30.46
2023-03-05T11:39:41.593Z,30.62
2023-03-05T11:45:05.559Z,30.71
2023-03-05T11:50:31.608Z,30.78
2023-03-05T11:55:58.248Z,30.41
2023-03-05T12:01:23.652Z,30.71
2023-03-05T12:07:03.131Z,30.73
2023-03-05T12:12:43.305Z,30.50
2023-03-05T12:18:16.062Z,30.71
2023-03-05T12:23:55.359Z,31.04
2023-03-05T12:29:43.371Z,30.83
2023-03-05T12:35:24.273Z,30.83
2023-03-05T12:40:46.062Z,31.05
2023-03-05T12:46:26.112Z,30.88
2023-03-05T12:51:52.179Z,31.10
2023-03-05T12:57:21.519Z,31.00
2023-03-05T13:02:46.043Z,30.74
2023-03-05T13:08:20.536Z,30.67
2023-03-05T13:13:45.233Z,29.69
2023-03-05T13:19:16.428Z,28.55
2023-03-05T13:24:38.130Z,28.51
2023-03-05T13:29:59.973Z,28.21
2023-03-05T13:35:21.897Z,28.36
2023-03-05T13:40:43.640Z,28.61
2023-03-05T13:46:05.338Z,28.48
2023-03-05T13:51:44.567Z,28.43
2023-03-05T13:57:08.612Z,28.92
2023-03-05T14:02:32.466Z,29.12
2023-03-05T14:07:56.880Z,28.84
2023-03-05T14:13:24.554Z,29.36
2023-03-05T14:18:58.143Z,29.35
2023-03-05T14:24:27.008Z,29.62
2023-03-05T14:29:48.809Z,29.36
2023-03-05T14:35:18.866Z,29.42
2023-03-05T14:40:40.659Z,28.86
2023-03-05T14:46:02.496Z,28.88
2023-03-05T14:51:25.692Z,28.78
2023-03-05T14:56:48.262Z,28.70
2023-03-05T15:02:15.921Z,28.28
2023-03-05T15:07:38.047Z,28.40
2023-03-05T15:12:59.887Z,28.45
2023-03-05T15:18:23.036Z,28.38
2023-03-05T15:23:48.236Z,28.10
2023-03-05T15:29:09.991Z,28.54
2023-03-05T15:34:33.965Z,28.48
2023-03-05T15:39:55.835Z,28.69
2023-03-05T15:45:17.623Z,28.84
2023-03-05T15:50:42.819Z,28.92
2023-03-05T15:56:05.331Z,28.75
2023-03-05T16:01:27.626Z,29.30
2023-03-05T16:06:50.452Z,29.28
2023-03-05T16:12:18.151Z,29.22
2023-03-05T16:17:44.043Z,29.06
2023-03-05T16:23:06.378Z,28.77
2023-03-05T16:28:28.185Z,29.09
2023-03-05T16:33:50.173Z,29.23
2023-03-05T16:39:11.906Z,29.06
2023-03-05T16:44:33.790Z,29.08
2023-03-05T16:49:55.468Z,29.39
2023-03-05T16:55:17.336Z,29.18
2023-03-05T17:00:39.286Z,29.48
2023-03-05T17:06:01.107Z,29.14
2023-03-05T17:11:23.051Z,29.20
2023-03-05T17:16:46.132Z,29.10
2023-03-05T17:22:08.029Z,29.33
2023-03-05T17:27:29.703Z,29.10
2023-03-05T17:32:54.302Z,28.41
2023-03-05T17:38:16.078Z,27.84
2023-03-05T17:43:37.840Z,28.07
2023-03-05T17:48:59.660Z,27.67
2023-03-05T17:54:21.414Z,27.79
2023-03-05T17:59:44.406Z,27.63
2023-03-05T18:05:07.013Z,27.63
2023-03-05T18:10:30.060Z,28.00
2023-03-05T18:15:51.733Z,27.82
2023-03-05T18:21:17.995Z,28.15
2023-03-05T18:26:39.891Z,28.11
2023-03-05T18:32:01.787Z,28.59
2023-03-05T18:37:23.603Z,28.82
2023-03-05T18:42:45.557Z,28.72
2023-03-05T18:48:07.621Z,29.22
2023-03-05T18:53:29.542Z,29.46
2023-03-05T18:58:51.702Z,29.67
2023-03-05T19:04:13.477Z,29.92
2023-03-05T19:10:02.634Z,29.83
2023-03-05T19:15:24.518Z,29.75
2023-03-05T19:20:53.520Z,29.80
2023-03-05T19:26:15.275Z,29.53
2023-03-05T19:31:37.990Z,29.45
2023-03-05T19:36:59.729Z,28.86
2023-03-05T19:42:21.595Z,29.07
2023-03-05T19:47:43.358Z,29.02
2023-03-05T19:53:05.490Z,29.46
2023-03-05T19:58:27.203Z,29.87
2023-03-05T20:03:53.898Z,29.86
2023-03-05T20:09:16.604Z,29.76
2023-03-05T20:14:38.577Z,29.84
2023-03-05T20:20:00.752Z,29.99
2023-03-05T20:25:24.951Z,30.36
2023-03-05T20:30:46.677Z,30.37
2023-03-05T20:36:08.837Z,30.33
2023-03-05T20:41:31.704Z,29.73
2023-03-05T20:47:46.304Z,29.50
2023-03-05T20:53:09.466Z,28.98
2023-03-05T20:58:31.188Z,28.94
2023-03-05T21:03:53.987Z,28.49
2023-03-05T21:09:15.756Z,28.90
2023-03-05T21:14:38.374Z,28.65
2023-03-05T21:20:01.180Z,28.87
2023-03-05T21:25:30.244Z,29.18
2023-03-05T21:30:55.093Z,29.46
2023-03-05T21:36:18.938Z,29.16
2023-03-05T21:41:41.372Z,29.34
2023-03-05T21:47:03.226Z,29.32
2023-03-05T21:52:25.131Z,29.52
2023-03-05T21:57:47.042Z,29.49
2023-03-05T22:03:08.804Z,30.03
2023-03-05T22:08:30.604Z,29.95
2023-03-05T22:13:52.264Z,29.88
2023-03-05T22:19:13.962Z,30.10
2023-03-05T22:24:35.736Z,29.96
2023-03-05T22:29:57.454Z,30.07
2023-03-05T22:35:19.433Z,30.29
2023-03-05T22:40:44.494Z,30.16
2023-03-05T22:46:26.574Z,30.51
2023-03-05T22:51:48.377Z,30.69
2023-03-05T22:57:10.145Z,30.63
2023-03-05T23:02:32.034Z,30.70
2023-03-05T23:07:53.721Z,30.35
2023-03-05T23:13:15.395Z,30.79
2023-03-05T23:18:37.285Z,30.87
2023-03-05T23:23:58.966Z,30.76
2023-03-05T23:30:17.611Z,31.14
2023-03-05T23:35:41.454Z,31.16
2023-03-05T23:41:07.364Z,30.78
2023-03-05T23:46:29.075Z,31.08
2023-03-05T23:51:50.839Z,31.03
2023-03-05T23:57:12.671Z,31.27
